createdAt,value
2023-04-02T00:01:20.328Z,99330.78
2023-04-02T00:03:59.705Z,99331.64
2023-04-02T00:06:32.999Z,99329.23
2023-04-02T00:09:17.381Z,99331.81
2023-04-02T00:11:54.932Z,99332.50
2023-04-02T00:14:34.021Z,99334.91
2023-04-02T00:17:05.683Z,99340.41
2023-04-02T00:19:44.349Z,99337.15
2023-04-02T00:22:27.148Z,99340.92
2023-04-02T00:24:57.242Z,99345.39
2023-04-02T00:27:25.420Z,99344.02
2023-04-02T00:29:59.525Z,99345.91
2023-04-02T00:32:31.449Z,99346.09
2023-04-02T00:35:00.583Z,99344.70
2023-04-02T00:37:39.011Z,99344.70
2023-04-02T00:40:15.491Z,99343.50
2023-04-02T00:42:44.933Z,99346.42
2023-04-02T00:45:35.991Z,99349.19
2023-04-02T00:48:23.102Z,99347.48
2023-04-02T00:50:53.534Z,99352.46
2023-04-02T00:53:28.867Z,99351.77
2023-04-02T00:55:59.482Z,99353.48
2023-04-02T00:58:34.174Z,99357.27
2023-04-02T01:01:02.512Z,99357.27
2023-04-02T01:03:36.594Z,99362.09
2023-04-02T01:06:11.683Z,99361.39
2023-04-02T01:09:07.358Z,99362.25
2023-04-02T01:12:03.886Z,99363.29
2023-04-02T01:14:44.542Z,99363.63
2023-04-02T01:17:37.300Z,99363.45
2023-04-02T01:20:38.060Z,99363.63
2023-04-02T01:23:20.455Z,99365.52
2023-04-02T01:26:01.591Z,99368.61
2023-04-02T01:29:01.055Z,99371.54
2023-04-02T01:31:31.323Z,99373.26
2023-04-02T01:34:04.699Z,99376.86
2023-04-02T01:36:47.791Z,99381.51
2023-04-02T01:39:22.112Z,99385.29
2023-04-02T01:42:01.845Z,99388.55
2023-04-02T01:44:37.636Z,99390.61
2023-04-02T01:47:11.521Z,99391.99
2023-04-02T01:49:40.601Z,99394.91
2023-04-02T01:52:13.671Z,99392.34
2023-04-02T01:54:42.490Z,99401.80
2023-04-02T01:57:11.151Z,99406.79
2023-04-02T01:59:40.365Z,99403.52
2023-04-02T02:02:13.461Z,99404.72
2023-04-02T02:04:42.433Z,99406.61
2023-04-02T02:07:16.469Z,99413.13
2023-04-02T02:09:49.122Z,99411.90
2023-04-02T02:12:17.338Z,99413.27
2023-04-02T02:14:48.192Z,99420.84
2023-04-02T02:17:19.235Z,99418.25
2023-04-02T02:19:53.049Z,99422.72
2023-04-02T02:22:29.693Z,99422.70
2023-04-02T02:25:00.548Z,99424.07
2023-04-02T02:27:43.261Z,99427.84
2023-04-02T02:30:20.257Z,99429.56
2023-04-02T02:33:22.062Z,99437.47
2023-04-02T02:35:54.902Z,99440.73
2023-04-02T02:38:54.992Z,99441.43
2023-04-02T02:41:53.839Z,99446.08
2023-04-02T02:44:28.672Z,99446.73
2023-04-02T02:47:16.061Z,99450.00
2023-04-02T02:49:49.906Z,99459.43
2023-04-02T02:52:27.937Z,99461.85
2023-04-02T02:55:13.227Z,99464.94
2023-04-02T02:58:04.638Z,99469.24
2023-04-02T03:00:37.871Z,99473.70
2023-04-02T03:03:11.585Z,99477.31
2023-04-02T03:05:41.883Z,99475.58
2023-04-02T03:08:25.153Z,99481.77
2023-04-02T03:10:59.405Z,99481.41
2023-04-02T03:13:37.005Z,99485.55
2023-04-02T03:16:17.273Z,99490.15
2023-04-02T03:18:56.915Z,99492.38
2023-04-02T03:21:34.203Z,99495.31
2023-04-02T03:24:12.354Z,99496.34
2023-04-02T03:26:59.090Z,99498.55
2023-04-02T03:29:32.182Z,99501.80
2023-04-02T03:32:06.501Z,99499.91
2023-04-02T03:34:51.970Z,99509.17
2023-04-02T03:37:26.108Z,99514.48
2023-04-02T03:40:10.118Z,99517.92
2023-04-02T03:43:02.708Z,99517.60
2023-04-02T03:45:41.373Z,99517.95
2023-04-02T03:48:17.933Z,99519.84
2023-04-02T03:51:48.808Z,99521.89
2023-04-02T03:54:17.868Z,99526.67
2023-04-02T03:56:48.221Z,99524.27
2023-04-02T03:59:42.171Z,99527.38
2023-04-02T04:03:01.983Z,99529.58
2023-04-02T04:05:35.745Z,99527.99
2023-04-02T04:08:16.050Z,99531.95
2023-04-02T04:10:44.567Z,99537.45
2023-04-02T04:13:17.934Z,99546.20
2023-04-02T04:15:46.179Z,99546.54
2023-04-02T04:18:37.936Z,99553.75
2023-04-02T04:21:37.221Z,99556.99
2023-04-02T04:24:22.772Z,99561.11
2023-04-02T04:27:04.000Z,99564.19
2023-04-02T04:29:56.180Z,99566.92
2023-04-02T04:34:53.686Z,99567.27
2023-04-02T04:37:34.061Z,99570.01
2023-04-02T04:40:26.082Z,99572.07
2023-04-02T04:43:02.911Z,99579.57
2023-04-02T04:46:00.163Z,99580.23
2023-04-02T04:48:56.031Z,99579.41
2023-04-02T04:51:39.365Z,99585.25
2023-04-02T04:54:16.418Z,99588.16
2023-04-02T04:56:56.225Z,99593.11
2023-04-02T04:59:27.785Z,99598.06
2023-04-02T05:02:16.674Z,99600.98
2023-04-02T05:04:49.685Z,99602.03
2023-04-02T05:07:46.129Z,99608.36
2023-04-02T05:10:28.773Z,99617.13
2023-04-02T05:13:16.927Z,99616.60
2023-04-02T05:16:01.868Z,99617.93
2023-04-02T05:19:05.528Z,99620.17
2023-04-02T05:21:45.188Z,99622.00
2023-04-02T05:24:32.017Z,99629.52
2023-04-02T05:27:05.529Z,99629.36
2023-04-02T05:29:38.703Z,99631.25
2023-04-02T05:32:13.262Z,99631.92
2023-04-02T05:34:46.488Z,99634.32
2023-04-02T05:37:24.646Z,99640.49
2023-04-02T05:39:59.039Z,99646.61
2023-04-02T05:42:31.506Z,99644.59
2023-04-02T05:45:21.046Z,99652.46
2023-04-02T05:47:52.314Z,99662.38
2023-04-02T05:50:30.506Z,99669.75
2023-04-02T05:53:22.479Z,99676.88
2023-04-02T05:55:57.817Z,99680.62
2023-04-02T05:58:36.960Z,99686.95
2023-04-02T06:01:47.406Z,99695.92
2023-04-02T06:04:41.415Z,99692.54
2023-04-02T06:07:24.193Z,99692.68
2023-04-02T06:10:12.758Z,99694.31
2023-04-02T06:12:46.942Z,99696.66
2023-04-02T06:15:23.299Z,99702.88
2023-04-02T06:18:16.360Z,99714.59
2023-04-02T06:20:46.211Z,99714.55
2023-04-02T06:23:20.001Z,99722.74
2023-04-02T06:26:09.427Z,99725.23
2023-04-02T06:28:47.940Z,99728.65
2023-04-02T06:31:36.615Z,99734.38
2023-04-02T06:34:14.107Z,99740.66
2023-04-02T06:36:44.182Z,99739.58
2023-04-02T06:39:20.345Z,99742.66
2023-04-02T06:42:01.539Z,99747.77
2023-04-02T06:44:49.789Z,99749.80
2023-04-02T06:47:44.054Z,99755.66
2023-04-02T06:50:27.803Z,99754.99
2023-04-02T06:53:00.099Z,99757.75
2023-04-02T06:55:48.815Z,99760.98
2023-04-02T06:58:21.921Z,99765.64
2023-04-02T07:00:51.357Z,99766.58
2023-04-02T07:03:30.009Z,99768.46
2023-04-02T07:06:02.622Z,99770.96
2023-04-02T07:08:31.220Z,99774.54
2023-04-02T07:10:59.444Z,99777.52
2023-04-02T07:13:28.654Z,99779.09
2023-04-02T07:15:57.568Z,99785.57
2023-04-02T07:18:33.552Z,99783.17
2023-04-02T07:21:04.343Z,99785.80
2023-04-02T07:23:32.546Z,99787.96
2023-04-02T07:26:02.219Z,99789.83
2023-04-02T07:28:30.510Z,99801.94
2023-04-02T07:30:58.937Z,99806.36
2023-04-02T07:33:30.170Z,99808.95
2023-04-02T07:35:59.128Z,99810.45
2023-04-02T07:38:27.542Z,99801.78
2023-04-02T07:40:56.054Z,99802.59
2023-04-02T07:43:24.198Z,99812.02
2023-04-02T07:45:54.086Z,99817.77
2023-04-02T07:48:23.347Z,99822.98
2023-04-02T07:50:51.902Z,99834.77
2023-04-02T07:53:29.979Z,99843.70
2023-04-02T07:56:04.043Z,99845.02
2023-04-02T07:58:33.890Z,99843.65
2023-04-02T08:01:03.730Z,99845.36
2023-04-02T08:03:33.170Z,99848.72
2023-04-02T08:06:01.821Z,99853.12
2023-04-02T08:08:29.868Z,99857.80
2023-04-02T08:10:59.023Z,99863.34
2023-04-02T08:13:27.114Z,99864.52
2023-04-02T08:15:58.899Z,99873.64
2023-04-02T08:18:27.265Z,99883.48
2023-04-02T08:20:55.437Z,99897.30
2023-04-02T08:23:24.377Z,99906.73
2023-04-02T08:25:54.255Z,99908.31
2023-04-02T08:28:23.257Z,99908.85
2023-04-02T08:30:52.643Z,99912.09
2023-04-02T08:33:20.789Z,99911.30
2023-04-02T08:35:50.727Z,99913.16
2023-04-02T08:38:21.685Z,99916.45
2023-04-02T08:40:52.115Z,99917.08
2023-04-02T08:43:42.690Z,99919.91
2023-04-02T08:46:33.531Z,99920.05
2023-04-02T08:49:10.827Z,99927.80
2023-04-02T08:51:38.907Z,99930.30
2023-04-02T08:54:31.788Z,99936.48
2023-04-02T08:57:34.466Z,99934.92
2023-04-02T09:00:24.019Z,99931.63
2023-04-02T09:02:58.576Z,99932.81
2023-04-02T09:05:32.019Z,99938.50
2023-04-02T09:08:05.049Z,99942.77
2023-04-02T09:10:44.987Z,99936.70
2023-04-02T09:13:22.854Z,99940.16
2023-04-02T09:15:58.705Z,99941.34
2023-04-02T09:18:30.263Z,99939.77
2023-04-02T09:20:58.618Z,99944.24
2023-04-02T09:23:28.293Z,99943.02
2023-04-02T09:26:04.087Z,99954.39
2023-04-02T09:28:33.238Z,99956.15
2023-04-02T09:31:24.682Z,99964.77
2023-04-02T09:33:55.314Z,99965.01
2023-04-02T09:36:38.355Z,99968.98
2023-04-02T09:39:17.724Z,99967.14
2023-04-02T09:41:55.785Z,99965.17
2023-04-02T09:44:31.241Z,99969.55
2023-04-02T09:47:03.972Z,99978.33
2023-04-02T09:49:37.248Z,99986.55
2023-04-02T09:52:11.048Z,99989.44
2023-04-02T09:54:41.705Z,99993.55
2023-04-02T09:57:25.128Z,99996.73
2023-04-02T10:00:29.783Z,100000.89
2023-04-02T10:03:35.164Z,99999.23
2023-04-02T10:06:08.410Z,99996.71
2023-04-02T10:08:39.341Z,100003.91
2023-04-02T10:11:16.386Z,100003.42
2023-04-02T10:13:53.928Z,100004.10
2023-04-02T10:16:27.965Z,100010.02
2023-04-02T10:18:58.922Z,100014.55
2023-04-02T10:21:31.389Z,100017.56
2023-04-02T10:24:00.398Z,100024.63
2023-04-02T10:26:34.655Z,100030.32
2023-04-02T10:29:21.178Z,100032.64
2023-04-02T10:32:21.561Z,100033.08
2023-04-02T10:35:01.262Z,100042.64
2023-04-02T10:37:47.255Z,100041.19
2023-04-02T10:40:27.499Z,100047.11
2023-04-02T10:43:17.111Z,100053.23
2023-04-02T10:45:59.116Z,100055.21
2023-04-02T10:48:59.943Z,100058.99
2023-04-02T10:51:34.000Z,100058.41
2023-04-02T10:54:18.381Z,100060.19
2023-04-02T10:56:51.114Z,100064.31
2023-04-02T10:59:33.014Z,100063.99
2023-04-02T11:04:45.429Z,100073.50
2023-04-02T11:07:27.243Z,100076.94
2023-04-02T11:09:58.755Z,100085.05
2023-04-02T11:12:58.732Z,100086.48
2023-04-02T11:15:30.359Z,100090.20
2023-04-02T11:17:58.755Z,100098.46
2023-04-02T11:20:48.317Z,100104.16
2023-04-02T11:23:21.126Z,100107.50
2023-04-02T11:25:49.331Z,100113.77
2023-04-02T11:28:32.160Z,100117.08
2023-04-02T11:31:00.335Z,100126.76
2023-04-02T11:33:38.402Z,100133.55
2023-04-02T11:36:46.974Z,100139.34
2023-04-02T11:39:59.896Z,100143.30
2023-04-02T11:42:30.453Z,100147.42
2023-04-02T11:45:24.095Z,100148.80
2023-04-02T11:48:08.069Z,100151.61
2023-04-02T11:50:41.584Z,100150.46
2023-04-02T11:53:13.007Z,100153.05
2023-04-02T11:55:43.537Z,100149.49
2023-04-02T11:58:48.978Z,100155.21
2023-04-02T12:01:30.072Z,100150.09
2023-04-02T12:04:16.260Z,100155.36
2023-04-02T12:06:47.311Z,100162.55
2023-04-02T12:09:29.157Z,100169.02
2023-04-02T12:12:00.424Z,100166.89
2023-04-02T12:14:43.917Z,100167.41
2023-04-02T12:17:30.552Z,100173.36
2023-04-02T12:20:10.543Z,100176.27
2023-04-02T12:22:41.140Z,100176.31
2023-04-02T12:25:24.133Z,100185.05
2023-04-02T12:28:11.492Z,100186.02
2023-04-02T12:30:40.230Z,100184.31
2023-04-02T12:33:20.451Z,100185.87
2023-04-02T12:35:51.401Z,100188.66
2023-04-02T12:38:21.575Z,100192.86
2023-04-02T12:41:19.116Z,100191.27
2023-04-02T12:43:47.144Z,100196.16
2023-04-02T12:46:15.503Z,100199.21
2023-04-02T12:48:43.691Z,100199.84
2023-04-02T12:51:11.898Z,100210.06
2023-04-02T12:53:41.470Z,100211.42
2023-04-02T12:56:21.961Z,100216.34
2023-04-02T12:58:57.750Z,100220.69
2023-04-02T13:01:28.327Z,100223.37
2023-04-02T13:04:14.765Z,100222.60
2023-04-02T13:06:52.178Z,100229.98
2023-04-02T13:09:31.527Z,100230.34
2023-04-02T13:12:00.213Z,100234.96
2023-04-02T13:14:28.634Z,100236.98
2023-04-02T13:16:56.805Z,100233.70
2023-04-02T13:19:28.895Z,100237.77
2023-04-02T13:21:58.220Z,100236.25
2023-04-02T13:24:28.989Z,100240.77
2023-04-02T13:26:59.306Z,100240.09
2023-04-02T13:29:31.748Z,100246.34
2023-04-02T13:32:03.115Z,100249.87
2023-04-02T13:34:32.010Z,100247.40
2023-04-02T13:37:00.472Z,100250.16
2023-04-02T13:39:30.880Z,100254.60
2023-04-02T13:42:03.642Z,100258.18
2023-04-02T13:44:34.260Z,100258.59
2023-04-02T13:47:02.641Z,100257.41
2023-04-02T13:49:32.098Z,100261.42
2023-04-02T13:52:05.427Z,100267.69
2023-04-02T13:55:00.181Z,100269.40
2023-04-02T13:57:28.211Z,100268.65
2023-04-02T13:59:57.132Z,100273.08
2023-04-02T14:02:26.093Z,100277.73
2023-04-02T14:05:33.332Z,100281.13
2023-04-02T14:08:27.174Z,100281.42
2023-04-02T14:11:07.746Z,100289.73
2023-04-02T14:13:54.705Z,100293.94
2023-04-02T14:17:02.749Z,100297.39
2023-04-02T14:19:46.313Z,100300.00
2023-04-02T14:22:27.680Z,100301.63
2023-04-02T14:25:29.128Z,100309.48
2023-04-02T14:28:15.953Z,100311.00
2023-04-02T14:31:15.814Z,100320.05
2023-04-02T14:33:53.993Z,100322.09
2023-04-02T14:36:28.650Z,100323.48
2023-04-02T14:39:13.932Z,100327.71
2023-04-02T14:42:02.243Z,100327.34
2023-04-02T14:44:36.830Z,100331.08
2023-04-02T14:47:37.333Z,100329.48
2023-04-02T14:50:16.633Z,100334.12
2023-04-02T14:52:47.806Z,100340.58
2023-04-02T14:55:33.035Z,100346.39
2023-04-02T14:58:05.553Z,100344.46
2023-04-02T15:00:51.904Z,100348.23
2023-04-02T15:03:25.998Z,100354.61
2023-04-02T15:05:58.900Z,100358.10
2023-04-02T15:08:48.331Z,100358.42
2023-04-02T15:11:26.559Z,100365.81
2023-04-02T15:14:06.307Z,100367.34
2023-04-02T15:16:36.573Z,100369.65
2023-04-02T15:19:13.196Z,100375.40
2023-04-02T15:22:09.704Z,100378.88
2023-04-02T15:24:56.403Z,100382.29
2023-04-02T15:27:34.480Z,100387.40
2023-04-02T15:30:17.875Z,100389.55
2023-04-02T15:32:46.807Z,100397.70
2023-04-02T15:35:36.678Z,100399.77
2023-04-02T15:38:17.518Z,100403.38
2023-04-02T15:41:00.466Z,100404.59
2023-04-02T15:43:30.471Z,100410.25
2023-04-02T15:46:17.197Z,100414.68
2023-04-02T15:49:00.693Z,100413.49
2023-04-02T15:51:48.434Z,100423.79
2023-04-02T15:54:32.705Z,100428.67
2023-04-02T15:57:28.639Z,100432.91
2023-04-02T16:00:14.896Z,100440.28
2023-04-02T16:03:12.316Z,100443.30
2023-04-02T16:05:58.365Z,100451.52
2023-04-02T16:08:26.295Z,100452.71
2023-04-02T16:10:54.500Z,100457.08
2023-04-02T16:13:30.624Z,100462.45
2023-04-02T16:16:27.034Z,100469.38
2023-04-02T16:19:02.505Z,100475.03
2023-04-02T16:21:39.700Z,100479.17
2023-04-02T16:24:13.586Z,100480.98
2023-04-02T16:26:41.476Z,100489.33
2023-04-02T16:29:19.257Z,100487.29
2023-04-02T16:32:01.854Z,100492.62
2023-04-02T16:34:48.631Z,100492.79
2023-04-02T16:37:34.573Z,100498.99
2023-04-02T16:40:28.401Z,100504.12
2023-04-02T16:43:25.542Z,100508.42
2023-04-02T16:46:00.052Z,100509.97
2023-04-02T16:48:42.908Z,100514.48
2023-04-02T16:51:26.694Z,100516.23
2023-04-02T16:54:19.680Z,100521.12
2023-04-02T16:57:45.069Z,100526.45
2023-04-02T17:00:44.090Z,100529.13
2023-04-02T17:03:40.307Z,100529.52
2023-04-02T17:06:13.241Z,100535.46
2023-04-02T17:08:50.072Z,100542.10
2023-04-02T17:11:24.868Z,100548.14
2023-04-02T17:14:07.478Z,100554.23
2023-04-02T17:16:50.397Z,100555.53
2023-04-02T17:19:20.840Z,100559.84
2023-04-02T17:21:53.387Z,100563.83
2023-04-02T17:24:27.560Z,100561.34
2023-04-02T17:27:22.136Z,100571.27
2023-04-02T17:29:54.850Z,100575.04
2023-04-02T17:32:27.251Z,100580.06
2023-04-02T17:34:56.551Z,100580.12
2023-04-02T17:37:57.000Z,100589.21
2023-04-02T17:40:27.694Z,100589.84
2023-04-02T17:43:14.203Z,100589.63
2023-04-02T17:45:52.927Z,100591.80
2023-04-02T17:48:36.381Z,100595.26
2023-04-02T17:51:30.627Z,100593.27
2023-04-02T17:54:10.527Z,100594.38
2023-04-02T17:56:56.579Z,100600.05
2023-04-02T17:59:54.289Z,100602.41
2023-04-02T18:02:44.002Z,100603.90
2023-04-02T18:05:12.274Z,100604.57
2023-04-02T18:07:58.373Z,100606.09
2023-04-02T18:10:46.672Z,100610.88
2023-04-02T18:13:33.033Z,100607.43
2023-04-02T18:16:11.399Z,100608.86
2023-04-02T18:18:53.470Z,100607.10
2023-04-02T18:21:24.761Z,100612.09
2023-04-02T18:24:02.325Z,100613.88
2023-04-02T18:26:48.437Z,100613.85
2023-04-02T18:29:22.381Z,100619.60
2023-04-02T18:32:25.755Z,100622.59
2023-04-02T18:35:17.828Z,100620.39
2023-04-02T18:38:47.418Z,100626.63
2023-04-02T18:41:42.849Z,100632.10
2023-04-02T18:44:36.755Z,100635.81
2023-04-02T18:47:30.527Z,100640.08
2023-04-02T18:50:16.976Z,100642.04
2023-04-02T18:52:46.163Z,100643.16
2023-04-02T18:55:28.087Z,100644.58
2023-04-02T18:58:09.449Z,100647.05
2023-04-02T19:04:39.593Z,100646.77
2023-04-02T19:07:14.349Z,100654.91
2023-04-02T19:09:48.613Z,100656.48
2023-04-02T19:12:19.342Z,100657.00
2023-04-02T19:14:49.756Z,100662.17
2023-04-02T19:17:38.281Z,100664.48
2023-04-02T19:20:34.238Z,100666.07
2023-04-02T19:23:08.785Z,100667.16
2023-04-02T19:25:37.733Z,100667.89
2023-04-02T19:28:24.121Z,100666.23
2023-04-02T19:31:07.519Z,100665.60
2023-04-02T19:33:47.456Z,100670.61
2023-04-02T19:36:21.419Z,100673.69
2023-04-02T19:39:15.130Z,100674.91
2023-04-02T19:41:51.520Z,100679.88
2023-04-02T19:44:21.163Z,100685.07
2023-04-02T19:46:51.599Z,100688.78
2023-04-02T19:49:33.876Z,100695.16
2023-04-02T19:52:02.005Z,100694.22
2023-04-02T19:54:30.191Z,100694.23
2023-04-02T19:56:58.308Z,100693.85
2023-04-02T19:59:26.805Z,100699.40
2023-04-02T20:01:55.406Z,100696.98
2023-04-02T20:04:23.444Z,100696.52
2023-04-02T20:06:51.828Z,100695.70
2023-04-02T20:09:21.269Z,100695.41
2023-04-02T20:11:49.176Z,100694.75
2023-04-02T20:14:17.152Z,100697.84
2023-04-02T20:16:45.880Z,100702.35
2023-04-02T20:19:14.257Z,100700.70
2023-04-02T20:21:42.440Z,100703.69
2023-04-02T20:24:11.077Z,100709.77
2023-04-02T20:26:39.214Z,100711.30
2023-04-02T20:29:07.320Z,100713.86
2023-04-02T20:31:36.163Z,100716.96
2023-04-02T20:34:05.654Z,100722.63
2023-04-02T20:36:34.075Z,100722.08
2023-04-02T20:39:02.729Z,100725.48
2023-04-02T20:41:31.201Z,100724.11
2023-04-02T20:43:59.117Z,100728.91
2023-04-02T20:46:27.136Z,100726.64
2023-04-02T20:48:55.466Z,100726.76
2023-04-02T20:51:25.441Z,100729.98
2023-04-02T20:53:54.114Z,100730.59
2023-04-02T20:56:26.687Z,100732.05
2023-04-02T20:58:54.581Z,100737.84
2023-04-02T21:01:25.275Z,100742.73
2023-04-02T21:03:57.825Z,100743.02
2023-04-02T21:06:31.081Z,100743.98
2023-04-02T21:08:59.257Z,100748.40
2023-04-02T21:11:27.259Z,100753.17
2023-04-02T21:13:56.557Z,100753.99
2023-04-02T21:16:31.432Z,100751.54
2023-04-02T21:19:02.265Z,100753.20
2023-04-02T21:21:30.977Z,100753.02
2023-04-02T21:24:02.132Z,100757.29
2023-04-02T21:26:34.203Z,100758.92
2023-04-02T21:29:03.922Z,100761.02
2023-04-02T21:31:37.748Z,100762.52
2023-04-02T21:34:07.171Z,100762.30
2023-04-02T21:36:37.612Z,100767.02
2023-04-02T21:39:12.023Z,100767.04
2023-04-02T21:41:42.883Z,100768.16
2023-04-02T21:44:14.817Z,100768.14
2023-04-02T21:46:43.778Z,100772.04
2023-04-02T21:49:14.350Z,100772.71
2023-04-02T21:51:44.687Z,100776.10
2023-04-02T21:54:13.880Z,100778.13
2023-04-02T21:56:45.226Z,100783.98
2023-04-02T21:59:15.312Z,100785.28
2023-04-02T22:01:47.064Z,100782.34
2023-04-02T22:04:20.705Z,100788.48
2023-04-02T22:06:49.805Z,100790.99
2023-04-02T22:09:21.968Z,100792.05
2023-04-02T22:11:51.723Z,100792.91
2023-04-02T22:14:20.288Z,100796.41
2023-04-02T22:16:48.235Z,100802.73
2023-04-02T22:19:16.908Z,100801.13
2023-04-02T22:21:45.718Z,100808.17
2023-04-02T22:24:18.696Z,100813.59
2023-04-02T22:26:47.080Z,100811.54
2023-04-02T22:29:15.052Z,100815.19
2023-04-02T22:31:44.206Z,100813.98
2023-04-02T22:34:12.477Z,100816.61
2023-04-02T22:36:41.270Z,100821.73
2023-04-02T22:39:12.197Z,100817.14
2023-04-02T22:41:40.426Z,100823.61
2023-04-02T22:44:14.215Z,100821.41
2023-04-02T22:46:50.058Z,100823.48
2023-04-02T22:49:19.561Z,100824.48
2023-04-02T22:51:48.001Z,100825.64
2023-04-02T22:54:16.222Z,100826.81
2023-04-02T22:56:44.422Z,100829.34
2023-04-02T22:59:12.353Z,100827.07
2023-04-02T23:01:40.884Z,100827.84
2023-04-02T23:04:09.240Z,100828.38
2023-04-02T23:06:37.114Z,100827.25
2023-04-02T23:09:05.097Z,100826.16
2023-04-02T23:11:33.221Z,100831.40
2023-04-02T23:14:01.243Z,100834.39
2023-04-02T23:16:30.011Z,100834.81
2023-04-02T23:18:58.196Z,100835.42
2023-04-02T23:21:26.880Z,100837.13
2023-04-02T23:23:56.694Z,100840.73
2023-04-02T23:26:29.450Z,100845.25
2023-04-02T23:28:59.253Z,100846.06
2023-04-02T23:31:27.994Z,100848.06
2023-04-02T23:33:57.093Z,100845.86
2023-04-02T23:36:31.836Z,100850.96
2023-04-02T23:39:11.059Z,100852.27
2023-04-02T23:41:41.317Z,100851.88
2023-04-02T23:44:10.325Z,100850.47
2023-04-02T23:46:38.365Z,100849.20
2023-04-02T23:49:06.268Z,100857.57
2023-04-02T23:51:34.550Z,100855.79
2023-04-02T23:54:02.460Z,100860.46
2023-04-02T23:56:30.581Z,100866.52
2023-04-02T23:58:58.551Z,100861.84
